메인 페이지
METAR-TAF:

METAR-TAF

공항 :

조지 부시 인터콘티넨털 공항

휴스턴, 텍사스, 미국

위도: 29-59-33N, 경도: 095-21-50W, 고도: 29m

현재 날씨관측

예보는 55분 전, 08:53시(UTC)에 발표되었습니다.
북동5kt
온도 24°C
습도 100%
기압 1014 hPa
시정: 16.1km
고도 3000ft 상공 구름 조금
고도 5000ft 상공 구름 많음

METAR: KIAH 150853Z 05005KT 10SM FEW030 BKN050 24/24 A2994 RMK AO2 SLP136 T02390239 53005

시각: 04:48 (09:48 UTC)

예보

예보는 35분 전, 09:13시(UTC)에 발표되었습니다.
예보 대상 시간: 15일 09시부터 16일 12시까지 (UTC)
북동5kt
시정: 10km
고도 3000ft 상공 구름 조금
고도 5000ft 상공 구름 많음
15일 1100시부터 (UTC)
5kt
시정: 10km
고도 1100ft 상공 구름 많음
고도 2000ft 상공 구름 많음
15일 1500시부터 (UTC)
12kt, 순간 최대 풍속 20kt
시정: 10km
고도 1000ft 상공 흐림
약한비

TAF: KIAH 150913Z 1509/1612 05005KT P6SM FEW030 BKN050 FM151100 01005KT P6SM BKN011 BKN020 FM151500 36012G20KT P6SM -RA OVC010

4,000개 이상의 공항 관측 자료 및 예보 (METAR 및 TAF 보고).

지도상에서 검색 가능한 기상관측소가 노란 점과 빨간 점으로 표시되어 있습니다.

기상관측소 명을 보려면 표시 위로 마우스를 이동하세요.

날씨 관측과 예보를 보려면 클릭하세요.

지도 변경 : 확대하려면 엑스 표시가 있는 녹색 버튼, 축소하려면 빼기 표시가 있는 녹색 버튼, 다음 페이지의 지도를 보려면 녹색 화살표를 클릭하세요.


METAR-TAF: